Time;durP1;ratioP1;P1;durP2;ratioP2;P2;SDS_P1;SDS_P2;PMS_P1;PMS_P2;Temp;Humidity;BMP_temperature;BMP_pressure;BME280_temperature;BME280_humidity;BME280_pressure;Samples;Min_cycle;Max_cycle;Signal;HPM_P1;HPM_P2
2023/12/06 00:00:40;;;;;;;37.10;25.98;;;7.00;99.90;;;7.27;91.98;101007.56;5094181;28;20044;-69
2023/12/06 00:03:09;;;;;;;32.97;25.77;;;7.00;99.90;;;7.23;92.75;100997.88;5094315;28;20093;-69
2023/12/06 00:05:39;;;;;;;37.22;26.27;;;7.00;99.90;;;7.23;92.91;101003.13;5094104;28;20085;-69
2023/12/06 00:08:09;;;;;;;34.40;24.73;;;7.00;99.90;;;7.34;92.62;101001.50;5076157;28;20438;-69
2023/12/06 00:10:37;;;;;;;39.08;26.65;;;7.10;99.90;;;7.41;92.28;101012.97;5093901;28;20043;-69
2023/12/06 00:13:06;;;;;;;36.90;26.52;;;7.10;99.90;;;7.43;92.18;101012.13;5093912;28;20109;-69
2023/12/06 00:15:34;;;;;;;35.53;26.48;;;7.20;99.90;;;7.46;92.19;101020.06;5094078;28;20127;-69
2023/12/06 00:18:04;;;;;;;37.25;26.60;;;7.20;99.90;;;7.50;91.99;101020.97;5093781;28;20043;-69
2023/12/06 00:20:32;;;;;;;36.30;25.92;;;7.20;99.90;;;7.39;91.81;101028.75;5093731;28;20405;-68
2023/12/06 00:23:00;;;;;;;33.35;24.80;;;7.30;99.90;;;7.57;91.59;101020.19;5093918;28;20036;-68
2023/12/06 00:25:30;;;;;;;33.00;25.80;;;7.30;99.90;;;7.56;91.70;101023.66;5093924;28;20101;-68
2023/12/06 00:27:58;;;;;;;33.83;24.90;;;7.40;99.90;;;7.52;91.91;101006.97;5093620;28;20050;-68
2023/12/06 00:30:27;;;;;;;33.28;25.13;;;7.40;99.90;;;7.58;91.66;101030.72;5093585;28;20135;-68
2023/12/06 00:32:55;;;;;;;35.47;25.88;;;7.40;99.90;;;7.60;91.49;101030.72;5093460;28;20131;-68
2023/12/06 00:35:24;;;;;;;31.15;24.45;;;7.40;99.90;;;7.59;91.52;101032.47;5093680;28;20116;-68
2023/12/06 00:37:52;;;;;;;36.40;25.52;;;7.40;99.90;;;7.44;91.44;101007.72;5093942;28;20040;-68
2023/12/06 00:40:20;;;;;;;38.63;26.30;;;7.40;99.90;;;7.60;91.57;101034.25;5093389;28;20040;-68
2023/12/06 00:42:50;;;;;;;34.05;25.15;;;7.40;99.90;;;7.60;91.56;101042.16;5075396;28;20051;-68
2023/12/06 00:45:18;;;;;;;33.80;24.38;;;7.40;99.90;;;7.64;91.59;101033.41;5093551;28;20135;-68
2023/12/06 00:47:47;;;;;;;33.55;24.27;;;7.50;99.90;;;7.64;91.31;101036.03;5093200;28;20036;-68
2023/12/06 00:50:15;;;;;;;34.35;25.08;;;7.50;99.90;;;7.64;91.63;101041.31;5093201;28;20040;-69
2023/12/06 00:52:44;;;;;;;34.65;23.77;;;7.50;99.90;;;7.63;91.44;101031.63;5093441;28;20493;-68
2023/12/06 00:55:12;;;;;;;34.88;25.05;;;7.50;99.90;;;7.68;91.70;101042.22;5092831;28;20081;-68
2023/12/06 00:57:41;;;;;;;30.92;23.85;;;7.50;99.90;;;7.69;91.08;101047.50;5093363;28;20040;-68
2023/12/06 01:00:13;;;;;;;31.75;24.73;;;7.50;99.90;;;7.68;91.74;101056.28;5093396;28;20071;-68
2023/12/06 01:02:41;;;;;;;35.10;24.75;;;7.60;99.90;;;7.13;91.72;100946.94;5093602;28;20040;-68
2023/12/06 01:05:10;;;;;;;32.90;24.98;;;7.50;99.90;;;7.67;91.29;101057.13;5092925;28;20052;-68
2023/12/06 01:07:38;;;;;;;32.40;24.02;;;7.50;99.90;;;7.66;91.39;101059.75;5093016;28;20497;-68
2023/12/06 01:10:08;;;;;;;29.67;23.50;;;7.50;99.90;;;7.64;91.94;101064.09;5093166;28;20093;-68
2023/12/06 01:12:37;;;;;;;33.03;24.00;;;7.50;99.90;;;7.60;92.03;101063.19;5092976;28;20064;-68
2023/12/06 01:15:07;;;;;;;33.22;24.90;;;7.40;99.90;;;7.50;92.68;101066.59;5092844;28;20063;-68
2023/12/06 01:17:36;;;;;;;33.67;24.05;;;7.40;99.90;;;7.62;92.30;101065.84;5092841;28;20055;-68
2023/12/06 01:20:08;;;;;;;34.28;24.80;;;7.40;99.90;;;7.66;92.57;101065.91;5093398;28;20572;-68
2023/12/06 01:22:37;;;;;;;33.83;23.95;;;7.50;99.90;;;7.57;93.00;101063.16;5093650;28;20040;-68
2023/12/06 01:25:06;;;;;;;31.42;24.25;;;7.40;99.90;;;7.59;93.01;101065.81;5074786;28;20040;-68
2023/12/06 01:27:35;;;;;;;32.73;24.30;;;7.40;99.90;;;7.66;92.66;101070.28;5092941;28;20059;-68
2023/12/06 01:30:05;;;;;;;31.77;23.80;;;7.50;99.90;;;7.60;92.91;101072.84;5092962;28;20038;-68
2023/12/06 01:32:41;;;;;;;30.88;23.67;;;7.40;99.90;;;7.58;93.05;101077.19;5093037;28;20051;-68
2023/12/06 01:35:10;;;;;;;29.85;23.67;;;7.40;99.90;;;7.56;93.70;101085.09;5092652;28;20036;-68
2023/12/06 01:37:38;;;;;;;33.25;23.25;;;7.40;99.90;;;7.63;93.59;101083.38;5093179;28;20071;-68
2023/12/06 01:40:08;;;;;;;31.42;21.60;;;7.40;99.90;;;7.60;93.71;101084.25;5074770;28;20083;-68
2023/12/06 01:42:37;;;;;;;27.33;21.92;;;7.40;99.90;;;7.63;93.80;101084.28;5092676;28;20113;-68
2023/12/06 01:45:06;;;;;;;29.77;22.05;;;7.50;99.90;;;7.53;94.47;101085.03;5092787;28;20043;-68
2023/12/06 01:47:36;;;;;;;29.63;22.30;;;7.40;99.90;;;7.43;94.93;101091.09;5092538;28;20060;-68
2023/12/06 01:50:08;;;;;;;30.77;22.73;;;7.30;99.90;;;7.27;95.92;101105.81;5092711;28;20504;-68
2023/12/06 01:52:37;;;;;;;26.98;21.25;;;7.10;99.90;;;7.30;96.62;101094.41;5093030;28;20050;-68
2023/12/06 01:55:06;;;;;;;28.38;21.73;;;7.10;99.90;;;7.34;97.00;101098.84;5092732;28;20131;-68
2023/12/06 01:57:37;;;;;;;31.98;21.90;;;7.10;99.90;;;7.12;97.30;101081.91;5092776;28;20070;-68
2023/12/06 02:00:07;;;;;;;28.02;21.77;;;7.10;99.90;;;7.08;97.79;101073.97;5092739;28;20040;-68
2023/12/06 02:02:38;;;;;;;27.30;19.65;;;7.00;99.90;;;7.14;98.37;101111.75;5092728;28;20059;-68
2023/12/06 02:05:11;;;;;;;26.50;20.35;;;7.00;99.90;;;7.14;99.27;101117.00;5092074;28;20055;-68
2023/12/06 02:07:40;;;;;;;29.25;21.65;;;6.90;99.90;;;7.10;99.33;101115.19;5094585;28;20460;-68
2023/12/06 02:10:09;;;;;;;27.98;19.77;;;6.90;99.90;;;7.01;100.00;101122.97;5097081;28;20067;-68
2023/12/06 02:12:37;;;;;;;30.50;20.85;;;6.80;99.90;;;6.89;100.00;101106.16;5096249;28;20459;-68
2023/12/06 02:15:08;;;;;;;28.83;21.08;;;6.80;99.90;;;6.95;100.00;101119.38;5096388;28;20051;-68
2023/12/06 02:17:37;;;;;;;27.13;20.70;;;6.80;99.90;;;6.97;100.00;101101.84;5096426;28;20097;-68
2023/12/06 02:20:09;;;;;;;23.65;18.38;;;6.90;99.90;;;7.05;100.00;101114.25;5096073;28;20101;-68
2023/12/06 02:22:38;;;;;;;25.58;19.02;;;6.90;99.90;;;7.17;100.00;101124.06;5096364;28;20039;-68
2023/12/06 02:25:12;;;;;;;23.67;17.50;;;7.00;99.90;;;7.19;100.00;101128.50;5077668;28;20040;-68
2023/12/06 02:27:42;;;;;;;23.17;16.38;;;7.00;99.90;;;7.35;100.00;101124.31;5096013;28;20042;-68
2023/12/06 02:30:12;;;;;;;23.42;16.30;;;7.10;99.90;;;7.45;100.00;101128.81;5095898;28;20044;-68
2023/12/06 02:32:41;;;;;;;20.75;15.20;;;7.20;99.90;;;7.41;100.00;101129.66;5096717;28;20101;-68
2023/12/06 02:35:19;;;;;;;19.30;15.75;;;7.20;99.90;;;7.62;100.00;101113.22;5096391;28;20393;-68
2023/12/06 02:37:51;;;;;;;17.05;13.75;;;7.40;99.90;;;7.63;100.00;101114.97;5094797;28;20546;-68
2023/12/06 02:40:22;;;;;;;15.40;11.68;;;7.50;99.90;;;7.51;100.00;101122.75;5095717;28;20040;-68
2023/12/06 02:42:50;;;;;;;17.15;12.82;;;7.40;99.90;;;7.42;100.00;101147.19;5095770;28;20098;-68
2023/12/06 02:45:19;;;;;;;15.13;12.63;;;7.30;99.90;;;7.57;100.00;101121.06;5095575;28;20477;-68
2023/12/06 02:47:47;;;;;;;16.67;11.85;;;7.30;99.90;;;7.50;100.00;101120.97;5095530;28;20044;-68
2023/12/06 02:50:16;;;;;;;17.17;13.32;;;7.30;99.90;;;7.59;100.00;101116.69;5095767;28;20121;-68
2023/12/06 02:52:44;;;;;;;17.38;13.15;;;7.30;99.90;;;7.58;100.00;101117.56;5095656;28;20040;-68
2023/12/06 02:55:12;;;;;;;15.15;12.55;;;7.30;99.90;;;7.50;100.00;101110.44;5095456;28;20120;-68
2023/12/06 02:57:42;;;;;;;14.15;12.65;;;7.30;99.90;;;7.70;100.00;101120.34;5095361;28;20070;-68
2023/12/06 03:00:11;;;;;;;17.45;12.88;;;7.50;99.90;;;7.64;100.00;101137.81;5095664;28;20042;-68
2023/12/06 03:02:40;;;;;;;13.20;11.63;;;7.40;99.90;;;7.64;100.00;101129.91;5095340;28;20044;-68
2023/12/06 03:05:09;;;;;;;14.70;12.35;;;7.40;99.90;;;7.60;100.00;101136.00;5094983;28;20056;-68
2023/12/06 03:07:37;;;;;;;14.00;11.73;;;7.40;99.90;;;7.83;100.00;101134.50;5095244;28;20048;-68
2023/12/06 03:10:07;;;;;;;13.27;11.88;;;7.50;99.90;;;7.86;100.00;101139.81;5095372;28;20039;-68
2023/12/06 03:12:35;;;;;;;15.75;11.40;;;7.60;99.90;;;7.95;100.00;101142.56;5095120;28;20051;-68
2023/12/06 03:15:06;;;;;;;15.07;10.48;;;7.70;99.90;;;8.00;100.00;101148.75;5095041;28;20400;-68
2023/12/06 03:17:34;;;;;;;14.70;11.00;;;7.70;99.90;;;8.09;99.62;101147.06;5095514;28;20489;-68
2023/12/06 03:20:06;;;;;;;14.20;10.90;;;7.90;99.90;;;7.94;99.76;101141.66;5094308;28;20036;-68
2023/12/06 03:22:35;;;;;;;13.13;11.73;;;7.80;99.90;;;8.08;100.00;101145.31;5095252;28;20086;-68
2023/12/06 03:25:04;;;;;;;13.65;11.25;;;7.80;99.90;;;8.13;99.34;101140.97;5094842;28;20047;-68
2023/12/06 03:27:33;;;;;;;15.00;11.52;;;7.90;99.90;;;8.20;98.90;101144.56;5095232;28;20046;-68
2023/12/06 03:30:03;;;;;;;16.50;11.85;;;8.00;99.90;;;8.19;98.95;101134.88;5094814;28;20086;-68
2023/12/06 03:32:32;;;;;;;13.63;11.02;;;8.00;99.90;;;8.18;98.71;101134.03;5094717;28;20097;-68
2023/12/06 03:35:01;;;;;;;16.73;12.17;;;8.00;99.90;;;8.15;98.84;101140.97;5094674;28;20044;-68
2023/12/06 03:37:30;;;;;;;18.45;12.68;;;8.00;99.90;;;8.16;98.88;101138.38;5095146;28;20301;-68
2023/12/06 03:39:58;;;;;;;17.65;13.00;;;8.00;99.90;;;8.13;99.00;101167.31;5094804;28;20036;-68
2023/12/06 03:42:26;;;;;;;19.65;13.50;;;7.90;99.90;;;8.05;98.12;101120.72;5094521;28;20063;-68
2023/12/06 03:44:55;;;;;;;20.13;13.68;;;7.90;99.90;;;8.21;98.11;101133.13;5094449;28;20062;-68
2023/12/06 03:47:23;;;;;;;21.00;14.60;;;8.00;99.90;;;8.23;97.25;101121.75;5094439;28;20040;-68
2023/12/06 03:49:53;;;;;;;24.73;14.20;;;8.10;99.90;;;8.23;96.71;101141.94;5076425;28;20059;-68
2023/12/06 03:52:22;;;;;;;22.13;12.87;;;8.10;99.90;;;8.07;95.94;101148.81;5094246;28;20089;-68
2023/12/06 03:54:50;;;;;;;23.88;13.30;;;8.00;99.90;;;8.02;95.08;101147.91;5076392;28;20705;-68
2023/12/06 03:57:19;;;;;;;23.33;13.65;;;7.90;99.90;;;8.03;92.98;101149.66;5094769;28;20082;-68
2023/12/06 03:59:47;;;;;;;19.63;11.90;;;8.00;99.90;;;7.99;92.99;101137.31;5076269;28;20489;-68
2023/12/06 04:02:17;;;;;;;26.27;12.73;;;8.00;99.90;;;8.05;91.77;101147.91;5094432;28;20067;-68
2023/12/06 04:04:45;;;;;;;23.65;12.23;;;8.00;99.90;;;8.08;90.82;101150.59;5093838;28;20413;-66
2023/12/06 04:07:15;;;;;;;22.83;12.65;;;8.00;99.90;;;8.11;90.12;101150.63;5094326;28;20109;-68
2023/12/06 04:09:44;;;;;;;21.40;11.77;;;8.00;99.90;;;8.05;88.65;101155.81;5094316;28;20071;-68
2023/12/06 04:12:13;;;;;;;21.90;11.43;;;8.10;99.90;;;8.08;88.04;101158.50;5075947;28;20496;-68
2023/12/06 04:14:42;;;;;;;26.05;11.85;;;8.00;99.90;;;8.07;87.45;101167.25;5094155;28;20055;-68
2023/12/06 04:17:12;;;;;;;16.50;11.10;;;8.00;99.90;;;8.16;87.71;101167.38;5093830;28;20071;-68
2023/12/06 04:19:40;;;;;;;23.98;12.07;;;8.10;99.90;;;8.26;86.82;101173.66;5094367;28;20047;-68
2023/12/06 04:22:09;;;;;;;20.75;11.63;;;8.20;99.90;;;8.23;85.32;101180.59;5093766;28;20042;-68
2023/12/06 04:24:39;;;;;;;20.08;11.13;;;8.20;99.90;;;8.29;85.59;101181.56;5093558;28;20052;-68
2023/12/06 04:27:08;;;;;;;22.88;11.60;;;8.20;99.90;;;8.35;84.76;101175.47;5093735;28;20054;-68
2023/12/06 04:29:36;;;;;;;20.90;11.38;;;8.30;99.90;;;8.40;84.39;101176.41;5093545;28;20406;-68
2023/12/06 04:32:05;;;;;;;18.92;11.05;;;8.30;99.90;;;8.37;84.30;101176.38;5093567;28;20123;-68
2023/12/06 04:34:34;;;;;;;20.63;11.77;;;8.30;99.90;;;8.44;83.60;101191.38;5093483;28;20090;-68
2023/12/06 04:37:03;;;;;;;19.02;11.32;;;8.30;99.90;;;8.55;83.19;101176.53;5093733;28;20068;-68
2023/12/06 04:39:32;;;;;;;21.02;11.70;;;8.50;99.90;;;8.63;82.72;101177.50;5093661;28;20051;-70
2023/12/06 04:42:01;;;;;;;18.35;10.88;;;8.50;99.90;;;8.72;82.29;101178.44;5093962;28;20090;-68
2023/12/06 04:44:30;;;;;;;16.25;10.40;;;8.70;99.90;;;8.81;81.55;101175.88;5093330;28;20044;-68
2023/12/06 04:46:58;;;;;;;18.35;10.50;;;8.80;99.90;;;8.77;81.55;101179.34;5075241;28;20109;-68
2023/12/06 04:49:26;;;;;;;18.38;10.90;;;8.70;99.90;;;8.68;80.84;101184.56;5075342;28;20076;-68
2023/12/06 04:51:55;;;;;;;19.52;10.38;;;8.60;99.90;;;8.55;79.79;101171.28;5093755;28;20069;-68
2023/12/06 04:54:24;;;;;;;14.82;9.20;;;8.60;99.90;;;8.71;79.73;101178.44;5093140;28;20040;-68
2023/12/06 04:56:52;;;;;;;16.45;9.23;;;8.60;99.90;;;8.71;78.63;101181.94;5093648;28;20355;-68
2023/12/06 04:59:22;;;;;;;13.38;8.80;;;8.60;99.90;;;8.60;77.89;101185.34;5093332;28;20040;-68
2023/12/06 05:01:50;;;;;;;16.80;8.75;;;8.50;99.90;;;8.61;76.68;101203.84;5093033;28;20044;-68
2023/12/06 05:04:19;;;;;;;12.73;8.45;;;8.50;99.90;;;7.03;75.86;100973.97;5093236;28;20036;-68
2023/12/06 05:06:47;;;;;;;10.82;7.97;;;8.40;99.90;;;8.47;75.90;101207.22;5093239;28;20040;-68
2023/12/06 05:09:15;;;;;;;11.15;8.15;;;8.40;99.90;;;8.59;75.59;101202.06;5074980;28;20408;-68
2023/12/06 05:11:44;;;;;;;15.30;8.25;;;8.50;99.90;;;8.43;75.17;101179.94;5092909;28;20044;-68
2023/12/06 05:14:13;;;;;;;13.40;8.45;;;8.50;99.90;;;8.39;74.56;101201.88;5093167;28;20497;-68
2023/12/06 05:16:43;;;;;;;15.65;8.48;;;8.40;99.90;;;8.56;75.10;101216.09;5092778;28;20090;-68
2023/12/06 05:19:11;;;;;;;14.70;9.20;;;8.40;99.90;;;8.68;74.44;101213.56;5092963;28;20125;-68
2023/12/06 05:21:40;;;;;;;15.90;8.75;;;8.60;99.90;;;8.66;74.38;101219.69;5092936;28;20485;-68
2023/12/06 05:24:09;;;;;;;13.30;8.98;;;8.60;99.90;;;8.70;74.71;101222.38;5092723;28;20036;-68
2023/12/06 05:26:38;;;;;;;13.02;9.07;;;8.60;99.90;;;8.72;74.25;101223.28;5092555;28;20636;-68
2023/12/06 05:29:07;;;;;;;16.55;9.15;;;8.60;99.90;;;8.61;75.33;101222.31;5092683;28;20075;-68
2023/12/06 05:31:35;;;;;;;15.93;9.25;;;8.50;99.90;;;8.67;74.95;101229.38;5092637;28;20529;-68
2023/12/06 05:34:05;;;;;;;20.73;9.70;;;8.60;99.90;;;8.46;74.86;101229.19;5074762;28;20078;-68
2023/12/06 05:36:33;;;;;;;13.90;8.95;;;8.50;99.90;;;8.59;75.43;101234.59;5092634;28;20054;-68
2023/12/06 05:39:05;;;;;;;14.82;9.10;;;8.50;99.90;;;8.66;75.08;101228.50;5092568;28;20481;-68
2023/12/06 05:41:33;;;;;;;16.80;9.35;;;8.50;99.90;;;8.50;75.91;101228.31;5093094;28;20063;-68
2023/12/06 05:44:02;;;;;;;17.13;9.60;;;8.40;99.90;;;8.55;74.86;101219.63;5078849;28;20043;-68
2023/12/06 05:46:30;;;;;;;14.82;9.23;;;8.40;99.90;;;8.53;75.54;101228.38;5096653;28;20040;-68
2023/12/06 05:48:59;;;;;;;17.70;9.77;;;8.40;99.90;;;8.49;75.47;101230.09;5096665;28;20048;-68
2023/12/06 05:51:29;;;;;;;17.45;9.32;;;8.40;99.90;;;8.50;75.71;101244.13;5096619;28;20071;-68
2023/12/06 05:53:57;;;;;;;15.82;9.88;;;8.30;99.90;;;8.56;75.67;101238.94;5078706;28;20048;-68
2023/12/06 05:56:25;;;;;;;17.13;9.93;;;8.30;99.90;;;8.60;75.84;101238.97;5096512;28;20052;-68
2023/12/06 05:58:54;;;;;;;18.55;9.57;;;8.40;99.90;;;8.75;75.47;101248.81;5096458;28;20082;-68
2023/12/06 06:01:22;;;;;;;17.52;9.68;;;8.50;99.90;;;8.84;75.73;101256.78;5096394;28;20123;-68
2023/12/06 06:03:51;;;;;;;15.55;9.77;;;8.60;99.90;;;8.81;75.34;101248.81;5096831;28;20032;-68
2023/12/06 06:06:20;;;;;;;13.38;9.52;;;8.70;99.90;;;8.80;75.46;101250.59;5096127;28;20059;-68
2023/12/06 06:08:50;;;;;;;11.80;8.75;;;8.60;99.90;;;8.87;75.18;101243.59;5078396;28;20413;-68
2023/12/06 06:11:18;;;;;;;18.63;9.98;;;8.70;99.90;;;8.99;74.97;101254.28;5096505;28;20552;-68
2023/12/06 06:13:47;;;;;;;15.15;9.60;;;8.80;99.90;;;9.01;74.56;101253.41;5096228;28;20040;-68
2023/12/06 06:16:17;;;;;;;14.75;9.43;;;8.80;99.90;;;9.01;74.44;101258.69;5096152;28;20230;-68
2023/12/06 06:18:46;;;;;;;15.73;9.45;;;8.90;99.90;;;8.97;74.24;101245.47;5096119;28;20040;-68
2023/12/06 06:21:15;;;;;;;15.32;9.55;;;8.90;99.90;;;9.07;74.34;101256.09;5096040;28;20036;-68
2023/12/06 06:23:44;;;;;;;18.65;10.02;;;8.90;99.90;;;9.05;74.22;101255.22;5095944;28;20090;-68
2023/12/06 06:26:13;;;;;;;14.27;9.38;;;8.90;99.90;;;9.07;74.42;101257.84;5095887;28;20047;-68
2023/12/06 06:28:42;;;;;;;12.88;9.45;;;8.90;99.90;;;8.93;73.74;101227.84;5096720;28;20389;-68
2023/12/06 06:31:11;;;;;;;14.82;9.30;;;8.90;99.90;;;9.11;74.26;101264.94;5095889;28;20044;-68
2023/12/06 06:33:39;;;;;;;15.30;9.02;;;8.90;99.90;;;9.07;73.94;101263.13;5077858;28;20052;-68
2023/12/06 06:36:09;;;;;;;14.30;9.18;;;8.90;99.90;;;8.93;73.81;101238.38;5096073;28;20048;-68
2023/12/06 06:38:37;;;;;;;16.85;9.18;;;8.90;99.90;;;9.06;73.49;101267.53;5095749;28;20044;-68
2023/12/06 06:41:06;;;;;;;18.55;10.13;;;8.90;99.90;;;9.05;73.60;101270.16;5095670;28;20036;-68
2023/12/06 06:43:37;;;;;;;15.68;9.25;;;8.90;99.90;;;9.09;73.58;101278.13;5095707;28;20131;-68
2023/12/06 06:46:05;;;;;;;14.52;9.98;;;8.90;99.90;;;8.99;73.51;101285.94;5077644;28;20052;-68
2023/12/06 06:48:34;;;;;;;14.52;9.60;;;8.90;99.90;;;8.91;73.84;101287.63;5095806;28;20040;-68
2023/12/06 06:51:02;;;;;;;15.77;10.05;;;8.70;99.90;;;8.91;74.02;101285.88;5095767;28;20044;-68
2023/12/06 06:53:31;;;;;;;16.33;9.10;;;8.70;99.90;;;8.81;74.15;101291.91;5095278;28;20051;-68
2023/12/06 06:55:59;;;;;;;13.40;9.55;;;8.70;99.90;;;8.85;74.06;101287.56;5095382;28;20089;-68
2023/12/06 06:58:27;;;;;;;19.50;9.95;;;8.60;99.90;;;8.84;74.47;101291.97;5095559;28;20518;-68
2023/12/06 07:00:58;;;;;;;15.50;10.20;;;8.60;99.90;;;8.71;74.63;101276.88;5095624;28;20105;-68
2023/12/06 07:03:26;;;;;;;12.38;9.45;;;8.60;99.90;;;8.80;74.53;101290.16;5095096;28;20036;-68
2023/12/06 07:05:56;;;;;;;15.35;10.27;;;8.60;99.90;;;8.72;74.61;101290.94;5095029;28;20120;-68
2023/12/06 07:08:24;;;;;;;20.92;10.10;;;8.50;99.90;;;8.73;74.82;101292.72;5095074;28;20040;-68
2023/12/06 07:10:53;;;;;;;15.50;10.90;;;8.60;99.90;;;8.72;74.79;101301.50;5095022;28;20066;-68
2023/12/06 07:13:22;;;;;;;18.80;11.32;;;8.60;99.90;;;8.70;74.97;101295.31;5094979;28;20086;-68
2023/12/06 07:15:50;;;;;;;20.08;11.32;;;8.50;99.90;;;8.77;74.61;101299.78;5094882;28;20049;-68
2023/12/06 07:18:20;;;;;;;17.38;11.30;;;8.50;99.90;;;8.71;74.72;101313.78;5095020;28;20079;-68
2023/12/06 07:20:49;;;;;;;15.18;10.77;;;8.50;99.90;;;8.68;75.02;101308.50;5094910;28;20047;-68
2023/12/06 07:23:18;;;;;;;15.80;10.52;;;8.50;99.90;;;8.72;74.73;101306.78;5094838;28;20090;-68
2023/12/06 07:25:46;;;;;;;17.20;10.90;;;8.50;99.90;;;8.71;75.33;101311.16;5077042;28;20108;-68
2023/12/06 07:28:15;;;;;;;18.85;10.93;;;8.50;99.90;;;8.71;75.31;101312.94;5094696;28;20113;-68
2023/12/06 07:30:43;;;;;;;19.17;11.57;;;8.50;99.90;;;8.67;75.43;101319.03;5094741;28;20141;-68
2023/12/06 07:33:12;;;;;;;17.15;11.68;;;8.40;99.90;;;8.58;76.17;101304.00;5094959;28;20036;-68
2023/12/06 07:35:43;;;;;;;18.38;10.98;;;8.40;99.90;;;8.53;76.52;101318.88;5095176;28;20052;-68
2023/12/06 07:38:13;;;;;;;15.07;10.75;;;8.30;99.90;;;8.42;76.34;101327.53;5094882;28;20346;-68
2023/12/06 07:40:42;;;;;;;18.90;11.30;;;8.20;99.90;;;8.42;77.04;101332.81;5094582;28;20051;-67
2023/12/06 07:43:11;;;;;;;15.15;10.82;;;8.20;99.90;;;8.35;77.29;101326.56;5076812;28;20393;-63
2023/12/06 07:45:40;;;;;;;16.33;10.88;;;8.20;99.90;;;8.43;77.05;101340.75;5094582;28;20194;-66
2023/12/06 07:48:08;;;;;;;20.48;11.65;;;8.20;99.90;;;8.51;77.31;101336.44;5094510;28;20397;-67
2023/12/06 07:50:37;;;;;;;22.00;11.40;;;8.20;99.90;;;8.53;77.43;101344.38;5094340;28;20051;-66
2023/12/06 07:53:07;;;;;;;16.73;10.32;;;8.30;99.90;;;8.57;77.72;101343.53;5076566;28;20047;-63
2023/12/06 07:55:36;;;;;;;16.60;10.77;;;8.30;99.90;;;8.03;78.01;101236.56;5094791;28;20093;-63
2023/12/06 07:58:05;;;;;;;20.42;11.38;;;8.40;99.90;;;8.46;77.89;101308.28;5094501;28;20339;-64
2023/12/06 08:00:36;;;;;;;15.50;10.48;;;8.40;99.90;;;8.73;77.87;101345.47;5094113;28;20408;-65
2023/12/06 08:03:05;;;;;;;19.45;11.82;;;8.50;99.90;;;8.75;78.34;101317.38;5094211;28;20451;-66
2023/12/06 08:05:35;;;;;;;21.00;11.93;;;8.60;99.90;;;9.04;78.15;101348.41;5093599;28;20063;-67
2023/12/06 08:08:03;;;;;;;17.15;11.38;;;8.80;99.90;;;9.09;76.98;101346.72;5094141;28;20126;-69
2023/12/06 08:10:33;;;;;;;18.05;11.00;;;8.80;99.90;;;9.09;76.28;101359.03;5093958;28;20370;-66
2023/12/06 08:13:02;;;;;;;16.90;10.10;;;8.90;99.90;;;9.11;76.14;101349.38;5094029;28;20040;-71
2023/12/06 08:15:31;;;;;;;16.70;11.23;;;8.90;99.90;;;9.16;75.85;101352.03;5093882;28;20093;-71
2023/12/06 08:17:59;;;;;;;23.40;11.10;;;8.90;99.90;;;9.33;75.54;101350.44;5094001;28;20412;-69
2023/12/06 08:20:28;;;;;;;15.55;10.45;;;9.10;99.90;;;9.42;75.19;101361.97;5093830;28;20052;-68
2023/12/06 08:22:57;;;;;;;14.35;9.70;;;9.20;99.90;;;9.34;75.27;101358.38;5094240;28;20085;-70
2023/12/06 08:25:25;;;;;;;19.02;11.45;;;9.20;99.90;;;9.41;74.96;101352.25;5093693;28;20443;-68
2023/12/06 08:27:55;;;;;;;19.10;11.95;;;9.20;99.90;;;9.45;75.42;101369.91;5093415;28;20069;-69
2023/12/06 08:30:24;;;;;;;14.75;11.10;;;9.30;99.90;;;9.41;75.06;101365.47;5093652;28;20047;-69
2023/12/06 08:32:53;;;;;;;19.98;11.77;;;9.30;99.90;;;9.35;75.39;101362.75;5075639;28;20059;-69
2023/12/06 08:35:21;;;;;;;17.88;11.75;;;9.20;99.90;;;9.33;75.48;101374.22;5093353;28;20048;-68
2023/12/06 08:37:50;;;;;;;15.82;11.00;;;9.20;99.90;;;9.27;75.53;101372.38;5093684;28;20044;-69
2023/12/06 08:40:18;;;;;;;19.63;11.48;;;9.10;99.90;;;9.09;75.44;101359.91;5093971;28;20040;-68
2023/12/06 08:42:46;;;;;;;14.65;10.68;;;9.00;99.90;;;9.21;75.68;101376.72;5093396;28;20044;-70
2023/12/06 08:45:16;;;;;;;16.42;11.23;;;9.00;99.90;;;9.19;75.57;101382.00;5093356;28;20554;-69
2023/12/06 08:47:45;;;;;;;18.60;11.25;;;9.10;99.90;;;9.18;75.76;101389.88;5093331;28;20047;-70
2023/12/06 08:50:15;;;;;;;19.50;10.73;;;9.00;99.90;;;9.05;76.06;101392.41;5075659;28;20052;-70
2023/12/06 08:52:45;;;;;;;18.65;11.50;;;8.90;99.90;;;8.90;76.46;101399.28;5093197;28;20040;-69
2023/12/06 08:55:13;;;;;;;16.95;10.65;;;8.70;99.90;;;8.86;76.15;101405.41;5075289;28;20052;-69
2023/12/06 08:57:42;;;;;;;17.13;9.65;;;8.80;99.90;;;8.88;76.56;101408.94;5093230;28;20044;-66
2023/12/06 09:00:12;;;;;;;15.75;9.85;;;8.70;99.90;;;8.05;76.71;101258.56;5093340;28;20075;-69
2023/12/06 09:02:43;;;;;;;13.85;9.23;;;8.80;99.90;;;9.00;77.24;101398.53;5093056;28;20562;-71
2023/12/06 09:05:12;;;;;;;15.38;8.75;;;8.90;99.90;;;8.93;78.14;101394.03;5092873;28;20419;-69
2023/12/06 09:07:40;;;;;;;13.85;9.07;;;8.80;99.90;;;8.67;79.23;101404.28;5093427;28;20040;-69
2023/12/06 09:10:10;;;;;;;9.73;8.07;;;8.60;99.90;;;8.63;80.37;101394.56;5093225;28;20047;-69
2023/12/06 09:12:38;;;;;;;14.93;9.23;;;8.50;99.90;;;8.52;80.69;101412.00;5075234;28;20048;-69
2023/12/06 09:15:07;;;;;;;12.80;8.57;;;8.40;99.90;;;8.40;81.58;101389.91;5093193;28;20044;-69
2023/12/06 09:17:36;;;;;;;13.73;8.82;;;8.30;99.90;;;8.51;82.08;101407.63;5074300;28;20063;-70
2023/12/06 09:20:09;;;;;;;12.35;8.00;;;8.30;99.90;;;8.37;82.50;101414.47;5074900;28;20040;-70
2023/12/06 09:22:38;;;;;;;11.82;8.32;;;8.20;99.90;;;8.32;83.16;101404.72;5092847;28;20046;-70
2023/12/06 09:25:07;;;;;;;12.88;7.82;;;8.10;99.90;;;8.43;83.19;101408.38;5092769;28;20127;-70
2023/12/06 09:27:35;;;;;;;12.75;8.13;;;8.20;99.90;;;8.06;83.09;101346.38;5092583;28;20039;-70
2023/12/06 09:30:05;;;;;;;10.93;7.88;;;8.20;99.90;;;8.36;82.58;101414.44;5093494;28;20044;-70
2023/12/06 09:32:33;;;;;;;10.68;8.15;;;8.10;99.90;;;8.32;83.53;101420.53;5093427;28;20056;-70
2023/12/06 09:35:02;;;;;;;10.85;7.97;;;8.10;99.90;;;8.32;83.62;101420.53;5092892;28;20043;-69
2023/12/06 09:37:32;;;;;;;10.73;8.25;;;8.10;99.90;;;8.41;83.17;101421.53;5093168;28;20104;-70
2023/12/06 09:40:01;;;;;;;10.35;8.43;;;8.10;99.90;;;8.43;83.09;101416.28;5092548;28;20408;-70
2023/12/06 09:42:32;;;;;;;13.38;8.10;;;8.20;99.90;;;8.39;83.80;101430.28;5092572;28;20064;-70
2023/12/06 09:45:01;;;;;;;12.88;9.07;;;8.10;99.90;;;8.48;83.86;101422.53;5074654;28;20059;-70
2023/12/06 09:47:30;;;;;;;15.90;9.02;;;8.20;99.90;;;8.54;83.86;101425.22;5092306;28;20048;-70
2023/12/06 09:49:59;;;;;;;15.05;9.10;;;8.30;99.90;;;8.34;84.57;101414.44;5074838;28;20476;-69
2023/12/06 09:52:28;;;;;;;14.80;8.98;;;8.20;99.90;;;8.57;84.67;101427.91;5092402;28;20044;-70
2023/12/06 09:54:59;;;;;;;15.75;9.95;;;8.30;99.90;;;8.75;86.17;101422.84;5092603;28;20044;-70
2023/12/06 09:57:28;;;;;;;13.70;9.23;;;8.50;99.90;;;9.27;86.58;101430.44;5074496;28;20050;-70
2023/12/06 09:59:56;;;;;;;12.93;8.60;;;8.90;99.90;;;9.64;85.36;101437.81;5092503;28;20043;-74
2023/12/06 10:02:24;;;;;;;10.65;8.57;;;9.40;99.90;;;9.94;84.34;101435.44;5092575;28;20059;-71
2023/12/06 10:04:58;;;;;;;;;;;9.70;99.90;;;10.09;82.08;101436.41;5093389;28;20063;-76
2023/12/06 10:07:34;;;;;;;12.40;8.32;;;9.90;99.90;;;10.17;81.07;101440.00;5092154;28;20365;-76
2023/12/06 10:10:04;;;;;;;11.07;8.20;;;10.00;99.90;;;10.03;80.13;101424.03;5092537;28;20044;-77
2023/12/06 10:12:33;;;;;;;;;;;9.90;99.90;;;10.01;79.26;101431.97;5092727;28;20493;-77
2023/12/06 10:15:01;;;;;;;13.52;8.27;;;9.80;99.90;;;10.01;79.21;101426.69;5074373;28;19951;-75
2023/12/06 10:17:29;;;;;;;12.30;8.13;;;9.80;99.90;;;10.33;80.50;101421.63;5092737;28;20052;-76
2023/12/06 10:19:58;;;;;;;12.93;8.45;;;10.10;99.90;;;10.71;80.43;101430.63;5092109;28;20028;-76
2023/12/06 10:22:29;;;;;;;13.18;7.82;;;10.40;99.90;;;10.96;79.53;101430.69;5092038;28;20044;-75